Constanti, Spain
Current Conditions -  °F | °C
As of 11:30 AM on Monday 22 Dec 2014 (Local Time) from LERS Reporting Station
Clear Clear  
Wind Chill: 54°   Ceiling: Unl
Heat Index: 54°   Visibility: 6mi
Dew Point: 43°   Wind: 2mph
Humidity: 67%   Direction: NA
Pressure: 30.5"   Gusts: NA
Location:  41.15°N, 1.21°E
Report Text: LERS 221030Z VRB02KT CAVOK 12/06 Q1033
Loading
Personal Weather Stations






























Interactive Weather Map New forecast layout! Learn more

10-Day Weather Forecast

Advertisements
Track Severe Weather on mobile